Time;durP1;ratioP1;P1;durP2;ratioP2;P2;SDS_P1;SDS_P2;PMS_P1;PMS_P2;Temp;Humidity;BMP_temperature;BMP_pressure;BME280_temperature;BME280_humidity;BME280_pressure;Samples;Min_cycle;Max_cycle;Signal;HPM_P1;HPM_P2
2021/01/05 00:00:29;;;;;;;69.05;28.20;;;;;;;2.48;93.46;98557.21;2082549;85;21296;-64
2021/01/05 00:03:32;;;;;;;69.17;28.07;;;;;;;2.47;93.49;98552.49;2067063;86;21147;-64
2021/01/05 00:06:35;;;;;;;75.20;28.75;;;;;;;2.49;93.26;98549.85;2082446;85;21324;-64
2021/01/05 00:09:37;;;;;;;72.90;28.45;;;;;;;2.51;93.43;98548.05;2067584;86;21183;-64
2021/01/05 00:12:39;;;;;;;74.25;28.32;;;;;;;2.52;93.23;98547.16;2082464;85;21316;-64
2021/01/05 00:15:41;;;;;;;79.75;30.57;;;;;;;2.52;93.15;98548.00;2076624;86;21645;-65
2021/01/05 00:18:43;;;;;;;66.97;26.68;;;;;;;2.58;92.98;98544.36;2082215;85;21291;-64
2021/01/05 00:21:45;;;;;;;68.00;28.00;;;;;;;2.60;92.99;98538.23;2082404;85;21765;-64
2021/01/05 00:24:47;;;;;;;70.17;27.52;;;;;;;2.62;92.82;98539.48;2076867;86;21165;-63
2021/01/05 00:27:50;;;;;;;67.97;26.02;;;;;;;2.66;92.83;98530.72;2082439;86;21295;-63
2021/01/05 00:30:52;;;;;;;69.47;26.27;;;;;;;2.68;92.79;98530.20;2076671;86;21744;-63
2021/01/05 00:33:54;;;;;;;62.08;25.25;;;;;;;2.68;92.91;98515.95;2082178;85;21311;-64
2021/01/05 00:36:56;;;;;;;60.95;26.42;;;;;;;2.69;92.73;98520.25;2076865;86;21157;-65
2021/01/05 00:39:59;;;;;;;70.25;25.80;;;;;;;2.73;92.89;98516.66;2082409;85;21326;-65
2021/01/05 00:43:01;;;;;;;64.82;25.48;;;;;;;2.73;92.87;98514.07;2067281;86;21293;-65
2021/01/05 00:46:03;;;;;;;62.78;24.70;;;;;;;2.71;92.83;98505.95;2082360;85;21299;-66
2021/01/05 00:49:05;;;;;;;65.83;25.23;;;;;;;2.73;92.72;98505.44;2077029;86;21312;-64
2021/01/05 00:52:07;;;;;;;65.15;25.62;;;;;;;2.74;92.91;98504.55;2087017;84;21176;-65
2021/01/05 00:55:11;;;;;;;;;;;;;;;2.75;93.03;98508.38;2109831;84;21755;-68
2021/01/05 00:58:14;;;;;;;68.42;25.95;;;;;;;2.74;92.84;98505.41;2107468;84;20494;-67
2021/01/05 01:01:16;;;;;;;65.37;25.65;;;;;;;2.75;92.75;98507.08;2107804;84;21131;-65
2021/01/05 01:04:19;;;;;;;64.47;24.77;;;;;;;2.77;93.01;98510.48;2107665;84;21715;-66
2021/01/05 01:07:21;;;;;;;68.40;28.02;;;;;;;2.85;92.73;98514.55;2107804;84;21262;-66
2021/01/05 01:10:23;;;;;;;61.45;23.87;;;;;;;2.82;92.76;98512.91;2107816;84;21270;-64
2021/01/05 01:13:25;;;;;;;68.00;25.82;;;;;;;2.85;92.79;98511.50;2107521;84;21285;-65
2021/01/05 01:16:28;;;;;;;64.40;25.62;;;;;;;2.91;92.80;98509.98;2107668;84;21273;-65
2021/01/05 01:19:30;;;;;;;61.10;23.02;;;;;;;2.91;92.72;98509.98;2107651;84;21717;-64
2021/01/05 01:22:32;;;;;;;69.35;25.88;;;;;;;2.91;92.61;98507.85;2107864;84;21277;-64
2021/01/05 01:25:34;;;;;;;63.80;24.65;;;;;;;2.94;92.69;98505.16;2107401;84;21183;-65
2021/01/05 01:28:37;;;;;;;61.80;24.45;;;;;;;2.93;92.72;98510.80;2107670;84;21702;-64
2021/01/05 01:31:39;;;;;;;64.27;24.57;;;;;;;2.95;92.71;98501.67;2107539;84;21258;-63
2021/01/05 01:34:41;;;;;;;57.10;23.15;;;;;;;2.97;92.66;98501.61;2107852;84;21280;-63
2021/01/05 01:37:44;;;;;;;58.48;23.10;;;;;;;2.97;92.76;98492.09;2107674;84;21722;-65
2021/01/05 01:40:46;;;;;;;72.70;24.75;;;;;;;2.95;92.99;98487.42;2107457;84;21290;-64
2021/01/05 01:43:48;;;;;;;62.78;23.75;;;;;;;2.95;92.80;98479.19;2107901;84;21277;-64
2021/01/05 01:46:51;;;;;;;60.78;24.27;;;;;;;2.92;93.23;98482.35;2107338;84;21731;-65
2021/01/05 01:49:53;;;;;;;60.40;23.22;;;;;;;2.91;93.46;98471.13;2107883;84;21130;-63
2021/01/05 01:52:55;;;;;;;62.08;23.67;;;;;;;2.88;93.31;98467.34;2093310;84;21304;-63
2021/01/05 01:55:57;;;;;;;63.33;24.25;;;;;;;2.89;93.59;98464.33;2082289;85;21304;-64
2021/01/05 01:59:00;;;;;;;55.85;22.85;;;;;;;2.90;93.56;98464.27;2067454;86;21657;-64
2021/01/05 02:02:02;;;;;;;56.70;22.30;;;;;;;2.91;93.72;98453.45;2082744;85;21161;-64
2021/01/05 02:05:04;;;;;;;56.90;23.02;;;;;;;2.90;94.00;98448.73;2076526;86;21472;-64
2021/01/05 02:08:06;;;;;;;55.03;21.55;;;;;;;2.90;93.89;98451.31;2082764;85;21299;-64
2021/01/05 02:11:08;;;;;;;62.27;23.22;;;;;;;2.89;93.86;98446.19;2067290;86;21776;-63
2021/01/05 02:14:10;;;;;;;52.95;20.45;;;;;;;2.92;93.72;98444.78;2082281;85;21296;-64
2021/01/05 02:17:12;;;;;;;53.80;20.02;;;;;;;2.92;93.70;98443.03;2067425;86;21784;-64
2021/01/05 02:20:15;;;;;;;53.38;20.57;;;;;;;2.95;93.72;98439.02;2082647;85;21182;-64
2021/01/05 02:23:17;;;;;;;52.80;21.07;;;;;;;2.98;93.49;98440.66;2067552;86;21597;-64
2021/01/05 02:26:19;;;;;;;49.70;18.85;;;;;;;3.00;93.56;98444.03;2082378;85;21300;-64
2021/01/05 02:29:21;;;;;;;52.70;20.82;;;;;;;3.02;93.55;98435.77;2076928;86;21737;-64
2021/01/05 02:32:23;;;;;;;51.58;20.05;;;;;;;3.01;93.56;98427.59;2082368;85;21320;-64
2021/01/05 02:35:25;;;;;;;47.00;18.07;;;;;;;3.02;93.39;98421.52;2076693;86;21768;-64
2021/01/05 02:38:27;;;;;;;48.00;17.75;;;;;;;3.03;93.37;98419.34;2082254;85;21288;-64
2021/01/05 02:41:29;;;;;;;49.58;19.67;;;;;;;3.03;93.78;98417.17;2076452;86;21182;-64
2021/01/05 02:44:31;;;;;;;45.75;19.32;;;;;;;3.01;93.61;98423.70;2082611;85;21303;-64
2021/01/05 02:47:34;;;;;;;48.30;19.32;;;;;;;3.00;93.58;98415.53;2067422;86;21210;-63
2021/01/05 02:50:36;;;;;;;45.90;18.73;;;;;;;3.02;93.51;98418.93;2082258;85;21264;-64
2021/01/05 02:53:38;;;;;;;43.90;18.27;;;;;;;3.03;93.55;98406.81;2073519;84;21327;-64
2021/01/05 02:56:40;;;;;;;46.48;17.15;;;;;;;3.03;93.42;98404.22;2094746;85;21728;-65
2021/01/05 02:59:43;;;;;;;44.80;17.12;;;;;;;3.05;93.45;98398.08;2068977;85;21311;-64
2021/01/05 03:02:45;;;;;;;41.63;17.70;;;;;;;3.06;93.52;98397.62;2094934;85;21304;-64
2021/01/05 03:05:47;;;;;;;40.85;16.40;;;;;;;3.05;93.32;98390.77;2095184;85;21327;-64
2021/01/05 03:08:49;;;;;;;41.33;16.62;;;;;;;3.06;93.34;98388.55;2094950;85;21304;-64
2021/01/05 03:11:51;;;;;;;41.05;15.78;;;;;;;3.08;93.35;98382.88;2095106;85;21287;-64
2021/01/05 03:14:54;;;;;;;37.63;15.05;;;;;;;3.08;93.19;98385.00;2094881;85;21719;-63
2021/01/05 03:17:56;;;;;;;38.60;15.63;;;;;;;3.10;93.13;98382.35;2094968;85;21291;-64
2021/01/05 03:20:58;;;;;;;35.10;12.95;;;;;;;3.11;93.11;98375.81;2095146;85;21323;-64
2021/01/05 03:24:00;;;;;;;37.08;13.78;;;;;;;3.11;93.19;98371.92;2094731;85;21121;-64
2021/01/05 03:27:02;;;;;;;35.28;14.20;;;;;;;3.12;93.05;98373.62;2095193;85;21164;-64
2021/01/05 03:30:04;;;;;;;32.30;12.33;;;;;;;3.13;92.95;98367.98;2094954;85;21308;-64
2021/01/05 03:33:06;;;;;;;32.93;12.33;;;;;;;3.16;92.96;98365.73;2094881;85;21698;-64
2021/01/05 03:36:08;;;;;;;30.25;11.63;;;;;;;3.16;92.98;98361.84;2094925;85;21303;-64
2021/01/05 03:39:11;;;;;;;30.82;13.15;;;;;;;3.16;92.96;98356.66;2083525;85;21304;-65
2021/01/05 03:42:13;;;;;;;30.65;11.93;;;;;;;3.18;92.86;98354.87;2094948;85;21283;-64
2021/01/05 03:45:15;;;;;;;32.35;12.85;;;;;;;3.19;92.84;98354.81;2094965;85;21339;-65
2021/01/05 03:48:17;;;;;;;29.30;11.38;;;;;;;3.21;92.77;98349.56;2083051;85;21165;-64
2021/01/05 03:51:19;;;;;;;30.25;11.12;;;;;;;3.17;92.73;98341.05;2095116;85;21295;-64
2021/01/05 03:54:22;;;;;;;32.15;11.88;;;;;;;3.21;92.73;98339.20;2102675;84;21307;-64
2021/01/05 03:57:24;;;;;;;29.65;10.60;;;;;;;3.21;92.76;98342.62;2087178;85;21755;-65
2021/01/05 04:00:26;;;;;;;29.37;10.13;;;;;;;3.21;92.79;98342.62;2087075;85;21323;-66
2021/01/05 04:03:29;;;;;;;29.90;10.98;;;;;;;3.20;92.75;98337.03;2111143;84;21738;-64
2021/01/05 04:06:31;;;;;;;26.00;9.60;;;;;;;3.22;92.76;98333.09;2087077;85;21291;-65
2021/01/05 04:09:33;;;;;;;28.62;10.45;;;;;;;3.22;92.76;98337.84;2111527;84;21117;-66
2021/01/05 04:12:35;;;;;;;28.30;10.95;;;;;;;3.23;92.76;98322.69;2087164;85;21343;-66
2021/01/05 04:15:37;;;;;;;27.75;10.55;;;;;;;3.23;92.79;98322.69;2045887;87;21656;-64
2021/01/05 04:18:39;;;;;;;25.90;9.60;;;;;;;3.23;92.78;98324.41;2110958;84;21275;-64
2021/01/05 04:21:41;;;;;;;24.60;8.83;;;;;;;3.23;92.73;98320.53;2111073;84;21286;-66
2021/01/05 04:24:43;;;;;;;27.20;10.35;;;;;;;3.23;92.83;98321.39;2111078;84;21299;-64
2021/01/05 04:27:46;;;;;;;25.32;9.00;;;;;;;3.23;92.82;98313.62;2110737;84;21587;-64
2021/01/05 04:30:49;;;;;;;23.18;8.05;;;;;;;3.24;92.79;98317.88;2110938;84;21282;-64
2021/01/05 04:33:51;;;;;;;23.95;8.53;;;;;;;3.26;92.80;98316.52;2110699;84;21608;-64
2021/01/05 04:36:53;;;;;;;23.85;8.60;;;;;;;3.26;92.84;98321.70;2110581;84;21322;-64
2021/01/05 04:39:55;;;;;;;24.57;8.38;;;;;;;3.26;92.74;98313.92;2111073;84;21328;-64
2021/01/05 04:42:57;;;;;;;23.67;7.45;;;;;;;3.26;92.90;98308.73;2110668;84;21287;-64
2021/01/05 04:45:59;;;;;;;22.82;8.08;;;;;;;3.26;92.83;98313.48;2111030;84;21306;-64
2021/01/05 04:49:02;;;;;;;22.60;7.65;;;;;;;3.27;92.85;98309.97;2110567;84;21290;-64
2021/01/05 04:52:04;;;;;;;21.85;7.42;;;;;;;3.29;92.87;98306.88;2111039;84;21311;-65
2021/01/05 04:55:06;;;;;;;22.50;7.47;;;;;;;3.30;92.87;98305.12;2112824;84;21301;-65
2021/01/05 04:58:08;;;;;;;26.35;7.70;;;;;;;3.30;92.86;98306.42;2089183;84;21130;-64
2021/01/05 05:01:10;;;;;;;23.00;7.67;;;;;;;3.29;92.97;98296.52;2113391;84;21111;-66
2021/01/05 05:04:12;;;;;;;21.23;7.22;;;;;;;3.31;92.91;98296.45;2113770;84;21306;-64
2021/01/05 05:07:14;;;;;;;21.00;7.50;;;;;;;3.33;92.91;98300.28;2113637;84;21607;-64
2021/01/05 05:10:17;;;;;;;22.15;7.47;;;;;;;3.30;92.95;98297.34;2141753;83;21268;-64
2021/01/05 05:13:19;;;;;;;21.27;7.05;;;;;;;3.32;93.06;98291.66;2141940;83;21288;-64
2021/01/05 05:16:21;;;;;;;21.68;7.45;;;;;;;3.33;93.07;98293.33;2141668;83;21721;-63
2021/01/05 05:19:23;;;;;;;22.00;6.87;;;;;;;3.35;93.00;98291.97;2141743;83;21315;-66
2021/01/05 05:22:26;;;;;;;21.85;7.60;;;;;;;3.35;93.02;98292.84;2141458;83;22221;-64
2021/01/05 05:25:28;;;;;;;23.20;6.95;;;;;;;3.36;93.06;98285.45;2114530;83;21276;-63
2021/01/05 05:28:30;;;;;;;23.18;7.12;;;;;;;3.37;92.96;98282.41;2141836;83;21284;-64
2021/01/05 05:31:32;;;;;;;21.17;6.75;;;;;;;3.38;93.02;98284.93;2141526;83;21292;-64
2021/01/05 05:34:34;;;;;;;24.85;7.12;;;;;;;3.40;92.98;98274.50;2141461;83;21324;-64
2021/01/05 05:37:37;;;;;;;20.92;6.70;;;;;;;3.42;92.95;98275.27;2141707;83;21758;-64
2021/01/05 05:40:39;;;;;;;19.48;6.17;;;;;;;3.42;92.97;98270.94;2141707;83;21277;-63
2021/01/05 05:43:41;;;;;;;20.32;5.97;;;;;;;3.42;92.93;98262.30;2141945;83;21272;-64
2021/01/05 05:46:43;;;;;;;;;;;;;;;3.44;92.95;98257.91;2144133;83;21713;-64
2021/01/05 05:49:45;;;;;;;20.55;5.90;;;;;;;3.42;92.97;98258.41;2141729;83;20518;-65
2021/01/05 05:52:48;;;;;;;20.50;6.08;;;;;;;3.44;93.02;98256.61;2141446;83;21276;-65
2021/01/05 05:55:50;;;;;;;20.72;5.85;;;;;;;3.44;92.95;98250.97;2125603;83;21300;-64
2021/01/05 05:58:53;;;;;;;20.10;5.97;;;;;;;3.44;92.96;98254.85;2124788;83;21734;-64
2021/01/05 06:01:55;;;;;;;19.05;5.80;;;;;;;3.44;92.98;98245.78;2124481;84;21289;-65
2021/01/05 06:04:58;;;;;;;17.95;5.72;;;;;;;3.47;92.92;98244.35;2124842;84;21594;-65
2021/01/05 06:08:00;;;;;;;18.80;6.00;;;;;;;3.47;92.88;98246.95;2124627;84;21265;-64
2021/01/05 06:11:02;;;;;;;18.50;4.92;;;;;;;3.49;92.91;98240.86;2124961;84;21202;-64
2021/01/05 06:14:04;;;;;;;17.02;4.75;;;;;;;3.44;92.69;98247.08;2125017;84;21178;-64
2021/01/05 06:17:06;;;;;;;17.10;5.60;;;;;;;3.44;92.68;98239.77;2124948;84;21134;-64
2021/01/05 06:20:09;;;;;;;20.40;5.15;;;;;;;3.45;92.75;98238.86;2125068;84;21167;-64
2021/01/05 06:23:11;;;;;;;17.67;5.20;;;;;;;3.49;92.80;98243.45;2124690;84;21611;-66
2021/01/05 06:26:13;;;;;;;15.68;5.00;;;;;;;3.47;92.77;98237.87;2124892;84;21292;-63
2021/01/05 06:29:15;;;;;;;19.30;5.12;;;;;;;3.50;92.68;98236.08;2124818;84;21713;-64
2021/01/05 06:32:17;;;;;;;16.52;4.55;;;;;;;3.51;92.58;98235.17;2125041;84;21159;-64
2021/01/05 06:35:20;;;;;;;17.10;4.15;;;;;;;3.53;92.50;98237.23;2124525;84;21131;-64
2021/01/05 06:38:22;;;;;;;13.78;4.00;;;;;;;3.51;92.20;98234.71;2104268;84;21288;-65
2021/01/05 06:41:24;;;;;;;13.32;4.00;;;;;;;3.52;92.13;98230.36;2124803;84;21284;-64
2021/01/05 06:44:26;;;;;;;15.13;4.22;;;;;;;3.52;92.19;98236.84;2124788;84;21277;-66
2021/01/05 06:47:29;;;;;;;14.43;4.03;;;;;;;3.53;92.29;98235.48;2124830;84;21271;-65
2021/01/05 06:50:31;;;;;;;13.20;4.20;;;;;;;3.54;92.25;98233.75;2124549;84;21280;-64
2021/01/05 06:53:33;;;;;;;16.97;4.67;;;;;;;3.52;92.31;98235.55;2126288;83;21186;-65
2021/01/05 06:56:35;;;;;;;15.05;4.15;;;;;;;3.56;92.37;98228.89;2141430;83;21126;-63
2021/01/05 06:59:37;;;;;;;14.38;4.10;;;;;;;3.58;92.34;98224.94;2141772;83;21308;-63
2021/01/05 07:02:40;;;;;;;15.18;4.40;;;;;;;3.57;92.19;98225.37;2141360;83;21115;-64
2021/01/05 07:05:42;;;;;;;15.32;4.10;;;;;;;3.58;92.21;98224.94;2141518;83;21605;-63
2021/01/05 07:08:44;;;;;;;15.83;3.72;;;;;;;3.58;92.16;98219.28;2141381;83;21150;-64
2021/01/05 07:11:46;;;;;;;14.93;3.80;;;;;;;3.58;92.32;98217.16;2141815;83;21137;-64
2021/01/05 07:14:49;;;;;;;10.05;3.40;;;;;;;3.58;92.32;98217.16;2141503;83;21708;-64
2021/01/05 07:17:51;;;;;;;;;;;;;;;3.59;91.65;98209.74;2143952;83;21269;-65
2021/01/05 07:20:53;;;;;;;12.63;3.40;;;;;;;3.58;91.91;98210.67;2141621;83;20251;-64
2021/01/05 07:23:55;;;;;;;10.25;3.25;;;;;;;3.56;91.98;98209.44;2141636;83;21272;-64
2021/01/05 07:26:57;;;;;;;11.95;3.52;;;;;;;3.56;92.06;98206.84;2141528;83;21566;-65
2021/01/05 07:30:00;;;;;;;12.07;3.30;;;;;;;3.58;91.99;98212.80;2141730;83;21284;-63
2021/01/05 07:33:02;;;;;;;8.93;2.75;;;;;;;3.61;91.88;98212.66;2114514;83;21285;-65
2021/01/05 07:36:04;;;;;;;15.40;3.77;;;;;;;3.59;91.16;98207.15;2114541;83;21610;-64
2021/01/05 07:39:06;;;;;;;9.08;2.90;;;;;;;3.53;91.05;98206.12;2141390;83;21127;-64
2021/01/05 07:42:09;;;;;;;11.12;3.35;;;;;;;3.46;91.12;98194.72;2141451;83;21288;-65
2021/01/05 07:45:11;;;;;;;10.85;2.98;;;;;;;3.46;91.20;98204.23;2141601;83;21725;-64
2021/01/05 07:48:15;;;;;;;7.37;2.58;;;;;;;3.42;90.59;98193.16;2141375;83;21133;-67
2021/01/05 07:51:18;;;;;;;14.20;3.60;;;;;;;3.40;90.98;98196.25;2141203;83;21148;-63
2021/01/05 07:54:20;;;;;;;10.53;2.98;;;;;;;3.38;90.84;98195.48;2137441;83;21297;-63
2021/01/05 07:57:22;;;;;;;14.25;3.75;;;;;;;3.38;91.12;98189.00;2124747;84;21709;-63
2021/01/05 08:00:24;;;;;;;8.13;2.17;;;;;;;3.37;90.87;98180.00;2124706;84;21135;-64
2021/01/05 08:03:26;;;;;;;9.33;2.70;;;;;;;3.37;90.50;98195.55;2124508;84;21269;-64
2021/01/05 08:06:28;;;;;;;6.90;2.77;;;;;;;3.38;90.46;98183.82;2124754;84;21164;-64
2021/01/05 08:09:31;;;;;;;8.35;2.27;;;;;;;3.35;90.47;98181.80;2124756;84;21574;-64
2021/01/05 08:12:33;;;;;;;6.05;2.10;;;;;;;3.31;90.42;98184.98;2124480;84;21273;-64
2021/01/05 08:15:35;;;;;;;17.87;4.85;;;;;;;3.25;89.87;98182.19;2104249;84;21705;-65
2021/01/05 08:18:37;;;;;;;27.52;7.87;;;;;;;3.24;90.76;98175.78;2124757;84;21336;-64
2021/01/05 08:21:40;;;;;;;28.35;7.62;;;;;;;3.24;90.75;98170.13;2124971;84;21142;-64
2021/01/05 08:24:42;;;;;;;19.00;4.80;;;;;;;3.24;90.85;98170.59;2124631;84;21721;-64
2021/01/05 08:27:47;;;;;;;19.52;5.30;;;;;;;3.25;90.71;98167.11;2124517;84;21277;-66
2021/01/05 08:30:49;;;;;;;11.43;2.65;;;;;;;3.27;91.03;98168.70;2124314;82;21245;-64
2021/01/05 08:33:51;;;;;;;11.08;2.60;;;;;;;3.29;90.99;98171.26;2124570;84;21721;-64
2021/01/05 08:36:53;;;;;;;8.53;2.25;;;;;;;3.32;91.07;98171.56;2124987;84;21118;-66
2021/01/05 08:39:55;;;;;;;8.78;2.17;;;;;;;3.32;90.94;98170.27;2124971;84;21175;-66
2021/01/05 08:42:57;;;;;;;5.20;1.55;;;;;;;3.29;90.63;98166.91;2124450;84;21296;-65
2021/01/05 08:45:59;;;;;;;13.03;3.08;;;;;;;3.28;90.14;98171.69;2124649;84;21305;-65
2021/01/05 08:49:03;;;;;;;11.15;2.60;;;;;;;3.25;90.04;98163.22;2124465;84;21711;-65
2021/01/05 08:52:05;;;;;;;6.72;1.82;;;;;;;3.21;89.91;98161.66;2124699;84;21304;-66
2021/01/05 08:55:07;;;;;;;7.53;2.55;;;;;;;3.19;89.29;98161.72;2124353;84;21292;-65
2021/01/05 08:58:10;;;;;;;9.98;2.70;;;;;;;3.13;89.81;98155.47;2124488;84;21300;-64
2021/01/05 09:01:12;;;;;;;9.50;3.22;;;;;;;3.14;90.27;98158.93;2124867;84;21281;-64
2021/01/05 09:04:14;;;;;;;7.65;2.72;;;;;;;3.13;90.44;98155.47;2125141;84;21452;-66
2021/01/05 09:07:16;;;;;;;8.35;2.22;;;;;;;3.14;90.32;98158.93;2124800;84;21297;-65
2021/01/05 09:10:18;;;;;;;9.28;2.02;;;;;;;3.16;90.67;98150.19;2124982;84;21268;-64
2021/01/05 09:13:24;;;;;;;4.67;1.37;;;;;;;3.20;90.73;98152.19;2124485;84;21750;-64
2021/01/05 09:16:26;;;;;;;4.53;1.37;;;;;;;3.24;90.37;98144.67;2124646;84;21605;-64
2021/01/05 09:19:28;;;;;;;4.47;1.55;;;;;;;3.23;90.29;98146.44;2124645;84;21274;-65
2021/01/05 09:22:30;;;;;;;7.62;1.98;;;;;;;3.24;89.89;98146.80;2124984;84;21583;-64
2021/01/05 09:25:32;;;;;;;6.45;1.75;;;;;;;3.25;90.12;98141.19;2124642;84;21131;-64
2021/01/05 09:28:34;;;;;;;7.70;1.98;;;;;;;3.25;90.25;98143.31;2124722;84;21317;-65
2021/01/05 09:31:36;;;;;;;6.50;1.67;;;;;;;3.25;90.08;98139.42;2124939;84;21705;-64
2021/01/05 09:34:39;;;;;;;7.28;1.72;;;;;;;3.27;90.00;98135.47;2124838;84;21764;-64
2021/01/05 09:37:41;;;;;;;9.78;1.98;;;;;;;3.28;90.26;98126.33;2124864;84;21278;-64
2021/01/05 09:40:43;;;;;;;5.10;1.50;;;;;;;3.28;89.63;98120.31;2124804;84;21304;-63
2021/01/05 09:43:45;;;;;;;10.23;1.72;;;;;;;3.28;89.49;98119.02;2124597;84;21309;-64
2021/01/05 09:46:47;;;;;;;6.00;1.50;;;;;;;3.29;89.89;98120.72;2124620;84;21280;-64
2021/01/05 09:49:49;;;;;;;4.17;1.60;;;;;;;3.28;89.90;98121.14;2125107;84;21149;-63
2021/01/05 09:52:51;;;;;;;7.35;1.98;;;;;;;3.28;89.46;98114.66;2124625;84;21272;-64
2021/01/05 09:55:53;;;;;;;5.75;2.00;;;;;;;3.28;89.58;98105.59;2124641;83;21317;-63
2021/01/05 09:58:55;;;;;;;7.20;2.10;;;;;;;3.35;90.09;98104.02;2124858;84;21288;-65
2021/01/05 10:01:58;;;;;;;5.12;1.65;;;;;;;3.36;89.58;98096.20;2125068;84;21143;-64
2021/01/05 10:05:01;;;;;;;5.22;1.95;;;;;;;3.34;89.54;98095.41;2124744;84;21724;-66
2021/01/05 10:08:03;;;;;;;7.92;2.52;;;;;;;3.38;90.10;98085.30;2124600;84;21296;-65
2021/01/05 10:11:05;;;;;;;7.17;2.27;;;;;;;3.42;89.81;98086.86;2124624;84;21725;-68
2021/01/05 10:14:07;;;;;;;8.70;2.30;;;;;;;3.45;89.85;98085.89;2124672;84;21723;-63
2021/01/05 10:17:10;;;;;;;8.60;2.25;;;;;;;3.49;89.52;98087.87;2124582;84;21293;-65
2021/01/05 10:20:12;;;;;;;7.53;2.17;;;;;;;3.52;89.70;98080.82;2124672;84;21733;-67
2021/01/05 10:23:14;;;;;;;8.10;2.40;;;;;;;3.57;89.75;98076.72;2124817;84;21761;-66
2021/01/05 10:26:16;;;;;;;5.72;1.82;;;;;;;3.62;89.78;98074.75;2125049;84;21155;-64
2021/01/05 10:29:18;;;;;;;6.15;2.22;;;;;;;3.64;89.55;98067.76;2124591;84;21277;-64
2021/01/05 10:32:21;;;;;;;8.35;2.40;;;;;;;3.63;89.44;98070.81;2124781;84;21301;-64
2021/01/05 10:35:23;;;;;;;7.53;2.25;;;;;;;3.66;89.67;98064.63;2124653;84;21297;-63
2021/01/05 10:38:25;;;;;;;;;;;;;;;3.68;89.72;98064.55;2127460;84;21159;-63
2021/01/05 10:41:28;;;;;;;;;;;;;;;3.70;89.52;98061.45;2127441;84;20137;-64
2021/01/05 10:44:31;;;;;;;7.72;2.22;;;;;;;3.68;89.59;98064.55;2124707;84;20496;-65
2021/01/05 10:47:33;;;;;;;6.53;2.08;;;;;;;3.64;89.50;98058.21;2124535;84;21285;-69
2021/01/05 10:50:35;;;;;;;8.20;2.58;;;;;;;3.63;89.68;98046.17;2124853;84;21285;-65
2021/01/05 10:53:40;;;;;;;7.45;2.40;;;;;;;3.68;89.63;98045.10;2124683;84;21293;-64
2021/01/05 10:56:45;;;;;;;7.20;2.42;;;;;;;3.73;89.80;98049.17;2132266;83;21720;-65
2021/01/05 10:59:47;;;;;;;7.60;2.10;;;;;;;3.78;89.73;98041.20;2105889;83;21292;-64
2021/01/05 11:02:50;;;;;;;6.97;2.60;;;;;;;3.84;89.26;98037.02;2134592;83;21300;-64
2021/01/05 11:05:55;;;;;;;8.03;2.40;;;;;;;3.86;89.54;98034.35;2134459;83;21169;-64
2021/01/05 11:08:57;;;;;;;9.08;2.30;;;;;;;3.87;89.49;98034.75;2134650;83;21285;-65
2021/01/05 11:11:59;;;;;;;9.60;2.37;;;;;;;3.89;89.58;98040.22;2134798;83;21268;-64
2021/01/05 11:15:01;;;;;;;;;;;;;;;3.93;89.57;98026.20;2137112;83;21300;-64
2021/01/05 11:18:04;;;;;;;9.30;2.47;;;;;;;3.99;89.66;98029.83;2134490;83;20239;-65
2021/01/05 11:21:06;;;;;;;8.68;2.58;;;;;;;4.02;89.38;98032.71;2134801;83;21150;-64
2021/01/05 11:24:08;;;;;;;9.65;2.42;;;;;;;3.99;89.42;98019.88;2134493;83;21708;-66
2021/01/05 11:27:10;;;;;;;7.37;2.58;;;;;;;4.03;89.33;98018.83;2134719;83;21134;-64
2021/01/05 11:30:13;;;;;;;9.40;2.80;;;;;;;4.04;89.30;98017.06;2134601;83;21173;-66
2021/01/05 11:33:15;;;;;;;8.88;2.60;;;;;;;4.02;89.28;98011.13;2134367;83;21313;-65
2021/01/05 11:36:17;;;;;;;5.80;2.30;;;;;;;4.03;89.29;98013.64;2134568;83;21186;-64
2021/01/05 11:39:19;;;;;;;8.90;2.62;;;;;;;4.08;89.24;98009.09;2134334;83;21277;-66
2021/01/05 11:42:21;;;;;;;10.50;2.80;;;;;;;4.12;89.37;98005.88;2134334;83;21724;-64
2021/01/05 11:45:24;;;;;;;13.62;2.77;;;;;;;4.15;89.43;98000.53;2134361;83;21296;-64
2021/01/05 11:48:26;;;;;;;10.28;2.95;;;;;;;4.21;89.17;97998.95;2134664;83;21718;-65
2021/01/05 11:51:28;;;;;;;8.75;2.90;;;;;;;4.26;89.07;97996.96;2134326;83;21111;-64
2021/01/05 11:54:30;;;;;;;11.53;3.10;;;;;;;4.33;88.97;98000.94;2134788;83;21138;-65
2021/01/05 11:57:33;;;;;;;11.83;2.92;;;;;;;4.42;89.15;97985.84;2141134;83;21284;-64
2021/01/05 12:00:35;;;;;;;11.12;3.35;;;;;;;4.48;88.76;97988.12;2141546;83;21313;-64
2021/01/05 12:03:37;;;;;;;12.98;3.30;;;;;;;4.49;88.54;97989.80;2141474;83;21312;-64
2021/01/05 12:06:39;;;;;;;8.00;2.70;;;;;;;4.53;88.24;97995.23;2141589;83;21709;-64
2021/01/05 12:09:41;;;;;;;12.45;3.25;;;;;;;4.52;88.34;97992.25;2141384;83;21139;-64
2021/01/05 12:12:43;;;;;;;11.53;3.10;;;;;;;4.50;88.22;97990.20;2141700;83;21153;-64
2021/01/05 12:15:46;;;;;;;8.05;2.90;;;;;;;4.50;88.53;97985.00;2141787;83;21173;-63
2021/01/05 12:18:48;;;;;;;9.55;2.70;;;;;;;4.57;88.59;97983.78;2141462;83;21285;-64
2021/01/05 12:21:50;;;;;;;8.88;2.72;;;;;;;4.59;87.92;97982.41;2141541;83;21705;-64
2021/01/05 12:24:52;;;;;;;8.43;2.33;;;;;;;4.56;88.40;97975.59;2141321;83;21127;-64
2021/01/05 12:27:54;;;;;;;10.23;2.80;;;;;;;4.59;88.28;97978.52;2141468;83;21717;-64
2021/01/05 12:30:57;;;;;;;10.05;2.77;;;;;;;4.59;88.13;97982.41;2141334;83;21163;-64
2021/01/05 12:33:59;;;;;;;11.30;2.72;;;;;;;4.59;88.34;97975.91;2141553;83;21796;-64
2021/01/05 12:37:01;;;;;;;9.85;2.75;;;;;;;4.60;88.55;97979.73;2141545;83;21297;-64
2021/01/05 12:40:03;;;;;;;10.82;3.05;;;;;;;4.50;88.21;97976.74;2141521;83;21257;-64
2021/01/05 12:43:06;;;;;;;;;;;;;;;4.46;88.62;97978.28;2143960;83;21134;-64
2021/01/05 12:46:09;;;;;;;10.63;2.85;;;;;;;4.46;88.66;97980.41;2141661;83;20215;-63
2021/01/05 12:49:12;;;;;;;8.33;2.85;;;;;;;4.43;88.58;97985.75;2141875;83;21289;-63
2021/01/05 12:52:15;;;;;;;7.12;2.77;;;;;;;4.45;88.52;97983.08;2114584;83;21134;-64
2021/01/05 12:55:17;;;;;;;8.18;2.70;;;;;;;4.45;88.56;97978.75;2141592;83;21284;-65
2021/01/05 12:58:19;;;;;;;9.30;2.90;;;;;;;4.44;88.57;97982.69;2141750;83;21296;-64
2021/01/05 13:01:22;;;;;;;8.45;2.52;;;;;;;4.50;88.86;97983.23;2141954;83;21285;-64
2021/01/05 13:04:24;;;;;;;9.93;2.80;;;;;;;4.58;88.82;97980.72;2141510;83;21359;-64
2021/01/05 13:07:26;;;;;;;9.08;2.60;;;;;;;4.57;88.73;97979.03;2141849;83;21146;-64
2021/01/05 13:10:28;;;;;;;6.12;2.40;;;;;;;4.64;88.79;97985.59;2141498;83;21273;-64
2021/01/05 13:13:31;;;;;;;7.08;2.55;;;;;;;4.63;88.26;97983.94;2141723;83;21283;-64
2021/01/05 13:16:33;;;;;;;6.53;2.45;;;;;;;4.61;88.72;97983.16;2141480;83;21295;-64
2021/01/05 13:19:36;;;;;;;6.75;2.45;;;;;;;4.64;88.36;97988.19;2141413;83;21280;-64
2021/01/05 13:22:38;;;;;;;8.28;2.90;;;;;;;4.60;88.29;97981.50;2141660;83;21755;-63
2021/01/05 13:25:40;;;;;;;;;;;;;;;4.64;88.50;97985.16;2143936;83;21123;-65
2021/01/05 13:28:43;;;;;;;10.40;2.55;;;;;;;4.62;88.54;97983.55;2141736;83;20231;-64
2021/01/05 13:31:45;;;;;;;;;;;;;;;4.60;88.49;97993.19;2144121;83;21343;-64
2021/01/05 13:34:49;;;;;;;9.47;2.73;;;;;;;4.55;88.36;97993.86;2141578;83;20132;-64
2021/01/05 13:37:51;;;;;;;5.90;2.27;;;;;;;4.40;88.41;97995.00;2141479;83;21316;-64
2021/01/05 13:40:54;;;;;;;8.55;2.45;;;;;;;4.30;88.65;97997.67;2141468;83;21261;-64
2021/01/05 13:43:56;;;;;;;7.05;2.45;;;;;;;4.22;88.76;98005.81;2141932;83;21313;-65
2021/01/05 13:46:58;;;;;;;8.50;3.02;;;;;;;4.13;88.99;98000.60;2141459;83;21150;-64
2021/01/05 13:50:00;;;;;;;10.98;3.10;;;;;;;4.09;89.23;98001.66;2141675;83;21701;-64
2021/01/05 13:53:02;;;;;;;10.35;3.33;;;;;;;4.04;89.35;98002.36;2114610;83;21727;-65
2021/01/05 13:56:05;;;;;;;9.70;3.02;;;;;;;4.03;89.62;98004.56;2136609;83;21301;-65
2021/01/05 13:59:07;;;;;;;8.53;2.92;;;;;;;3.96;89.67;98004.00;2124858;84;21285;-63
2021/01/05 14:02:09;;;;;;;9.90;3.02;;;;;;;3.96;89.67;98004.00;2124948;84;21535;-66
2021/01/05 14:05:11;;;;;;;11.30;3.58;;;;;;;3.92;90.01;98010.70;2124885;84;21280;-65
2021/01/05 14:08:13;;;;;;;9.95;2.98;;;;;;;3.86;90.12;98001.92;2124891;84;21276;-64
2021/01/05 14:11:15;;;;;;;10.75;3.45;;;;;;;3.78;90.30;98007.02;2124836;84;21697;-64
2021/01/05 14:14:17;;;;;;;14.25;4.12;;;;;;;3.76;90.44;98012.71;2124890;84;21329;-65
2021/01/05 14:17:21;;;;;;;15.03;4.47;;;;;;;3.75;90.50;98017.53;2124705;84;21713;-64
2021/01/05 14:20:24;;;;;;;15.18;4.70;;;;;;;3.69;90.71;98012.61;2124417;84;21789;-64